Flight Track Log - Related Links

Times and Time Zones

All times are in EDT time to prevent confusion due to time zone crossing. See the N53NW flight status page for this flight to view local times or setup timezone preferences in your user account.

Time Position Orientation Groundspeed Altitude Reporting Facility
EDT Latitude Longitude Course Direction KTS MPH feet Rate Location/Type
Thu 11:58:03 AM 31.1819 -81.5108 305° West 336 387 2,400  Level Jacksonville Center
Thu 11:59:03 AM 31.2244 -81.5856 304° West 260 299 6,900 3,750 Climbing Jacksonville Center
Thu 12:00:03 PM 31.2689 -81.6553 307° West 262 302 9,900 2,700 Climbing Jacksonville Center
Thu 12:01:03 PM 31.3094 -81.7253 304° West 273 314 12,300 2,900 Climbing Jacksonville Center
Thu 12:02:03 PM 31.3664 -81.8075 309° West 289 333 15,700 2,850 Climbing Jacksonville Center
Thu 12:03:00 PM 31.4304 -81.8894 305° West  Level FlightAware Approximate
Thu 12:03:03 PM 31.4172 -81.8872 307° West 295 339 18,000  Level Jacksonville Center
Thu 12:04:03 PM 31.4636 -81.9597 307° West 308 354 20,100 2,050 Climbing Jacksonville Center
Thu 12:05:03 PM 31.5206 -82.0494 307° West 326 375 22,100 2,100 Climbing Jacksonville Center
Thu 12:06:03 PM 31.5756 -82.1367 307° West 332 382 24,300 2,300 Climbing Jacksonville Center
Thu 12:07:03 PM 31.6261 -82.2167 307° West 332 382 26,700 1,850 Climbing Jacksonville Center
Thu 12:08:03 PM 31.6850 -82.3017 309° West 327 376 28,000 650 Climbing Jacksonville Center
Thu 12:09:03 PM 31.7544 -82.4089 307° West 351 404 28,000  Level Jacksonville Center
Thu 12:11:30 PM 31.9206 -82.6711 307° West 412 474 28,000  Level Atlanta Center
Thu 12:12:30 PM 31.9842 -82.7706 307° West 417 480 28,000  Level Atlanta Center
Thu 12:13:30 PM 32.0522 -82.8772 307° West 417 480 28,000  Level Atlanta Center
Thu 12:14:30 PM 32.1200 -82.9892 306° West 417 480 28,000  Level Atlanta Center
Thu 12:15:30 PM 32.1897 -83.0964 308° West 417 480 28,000  Level Atlanta Center
Thu 12:16:30 PM 32.2572 -83.2061 306° West 417 480 28,000  Level Atlanta Center
Thu 12:17:30 PM 32.3267 -83.3136 307° West 417 480 28,000  Level Atlanta Center
Thu 12:18:30 PM 32.3942 -83.4264 305° West 417 480 28,000  Level Atlanta Center
Thu 12:19:30 PM 32.4636 -83.5367 307° West 418 481 28,000  Level Atlanta Center
Thu 12:20:30 PM 32.5286 -83.6422 306° West 413 475 28,000  Level Atlanta Center
Thu 12:21:30 PM 32.5917 -83.7456 306° West 402 463 28,000  Level Atlanta Center
Thu 12:22:30 PM 32.6544 -83.8514 305° West 402 463 28,000  Level Atlanta Center
Thu 12:23:30 PM 32.7192 -83.9572 306° West 402 463 28,000  Level Atlanta Center
Thu 12:24:30 PM 32.7839 -84.0611 307° West 402 463 28,000 -450 Level Atlanta Center
Thu 12:25:30 PM 32.8508 -84.1675 307° West 408 470 27,100 -1,050 Descending Atlanta Center
Thu 12:26:30 PM 32.9172 -84.2814 305° West 414 476 25,900 -1,200 Descending Atlanta Center
Thu 12:27:30 PM 32.9839 -84.3931 305° West 414 476 24,700 -1,400 Descending Atlanta Center
Thu 12:28:30 PM 33.0503 -84.5022 306° West 414 476 23,100 -1,600 Descending Atlanta Center
Thu 12:29:30 PM 33.1144 -84.6067 306° West 402 463 21,500 -1,600 Descending Atlanta Center
Thu 12:30:30 PM 33.1747 -84.7089 305° West 389 448 19,900 -1,600 Descending Atlanta Center
Thu 12:31:30 PM 33.2408 -84.8186 306° West 377 434 18,300 -950 Descending Atlanta Center
Thu 12:32:30 PM 33.3006 -84.9186 306° West 372 428 18,000 -150 Descending Atlanta Center
Thu 12:33:30 PM 33.3603 -85.0189 306° West 378 435 18,000 -200 Level Atlanta Center
Thu 12:34:30 PM 33.4200 -85.1189 306° West 378 435 17,600 -950 Descending Atlanta Center
Thu 12:35:30 PM 33.4797 -85.2194 305° West 378 435 16,100 -1,400 Descending Atlanta Center
Thu 12:36:30 PM 33.5392 -85.3147 307° West 367 422 14,800 -1,450 Descending Atlanta Center
Thu 12:37:30 PM 33.6331 -85.3311 352° North 335 386 13,200 -1,450 Descending Atlanta Center
Thu 12:38:30 PM 33.7147 -85.3125 11° North 330 380 11,900 -1,500 Descending Atlanta Center
Thu 12:39:30 PM 33.8067 -85.2939 10° North 330 380 10,200 -1,700 Descending Atlanta Center
Thu 12:40:30 PM 33.8944 -85.2750 10° North 325 374 8,500 -1,700 Descending Atlanta Center
Thu 12:41:30 PM 33.9781 -85.2586 North 308 354 6,800 -1,750 Descending Atlanta Center
Thu 12:42:30 PM 34.0617 -85.2425 North 302 348 5,000 -1,400 Descending Atlanta Center
Thu 12:43:30 PM 34.1475 -85.2236 10° North 286 329 4,000 -500 Descending Atlanta Center
Thu 12:44:30 PM 34.2228 -85.2094 North 281 323 4,000  Level Atlanta Center
Thu 12:45:30 PM 34.3022 -85.1931 10° North 276 318 4,000  Level Atlanta Center
Thu 12:46:30 PM 34.3797 -85.1789 North 276 318 4,000  Level Atlanta Center
Thu 12:47:30 PM 34.4592 -85.1600 11° North 276 318 4,000  Level Atlanta Center
Thu 12:48:30 PM 34.5197 -85.1456 11° North 276 318 4,000  Level Atlanta Center
Thu 12:49:30 PM 34.5950 -85.1314 North 269 310 4,000 7,000 Level Atlanta Center
Thu 12:50:30 PM 34.6681 -85.1197 North 269 310 18,000 -250 Climbing Atlanta Center
Thu 12:51:30 PM 34.6581 -85.0969 118° Southeast 395 455 3,500 -7,250 Descending Atlanta Center
Thu 12:52:30 PM 34.6158 -85.1292 212° Southwest 192 221 3,500  Level Atlanta Center
Thu 12:53:30 PM 34.5789 -85.0756 130° Southeast 182 209 3,500 7,250 Level Atlanta Center
Thu 12:54:30 PM 34.5436 -85.0322 135° Southeast 182 209 18,000 7,250 Climbing Atlanta Center
Thu 12:55:30 PM 34.5064 -84.9867 135° Southeast 182 209 18,000  Level Atlanta Center
Thu 12:56:30 PM 34.4900 -84.9661 134° Southeast 182 209 18,000  Level Atlanta Center
Thu 12:58:00 PM 34.3933 -85.0932 227° Southwest  Level FlightAware Approximate
Thu 01:05:00 PM 34.3500 -85.1500 187° South  Level FlightAware Approximate
Thu 01:06:00 PM 34.3508 -85.1587 187° South  Level Estimated
Thu 01:07:00 PM 34.3500 -85.1500 187° South  Level FlightAware Approximate
Thu 01:08:00 PM 34.3508 -85.1587 187° South  Level Estimated
Thu 01:09:00 PM 34.3500 -85.1500 187° South  Level FlightAware Approximate

Login

Don't have an account? Register now (free) for customized features, flight alerts, and more!